Aeroporto :
LOGIN :

Iscrizione | Disclaimer

   EN    FR    IT 

 










Sommario :    VFR   VFR Marginale   IFR   IFR Intensivo   IFR Molto Intensivo
Visibilità : 
Base nubi : 
>= 8 km
>= 3000ft
5 / 8 km
1000 / 3000 ft
1500m / 5 km
500 / 1000 ft
800 / 1500m
200 / 500 ft
< 800m
< 200 ft
Simboli :   Temporali  Nebbia  Neve Forte  Precipitazioni Forti  Vento > 20 kt
SIGMETs :   Varie  Temporali  Ghiacco  Turbolenza  Onda orograficha  Ceneri Vulcaniche






- Altitudine del aeroporto : 48 ft
- Codice IATA : PSR


LIBP - Abruzzo Pescara

ULTIMO METAR :
  • 200450Z AUTO 25006KT 9999 NCD 21/09 Q1011

METARs OBSOLETI :
  • 200420Z AUTO 27005KT 240V300 9999 NCD 20/08 Q1011
  • 200350Z AUTO 24007KT 9999 NCD 19/09 Q1011
  • 200320Z AUTO 28003KT 220V320 9999 NCD 19/11 Q1011
  • 200250Z AUTO 19004KT 100V250 9999 NCD 20/09 Q1011
  • 200220Z AUTO VRB05KT 9999 NCD 20/09 Q1010

TAF TAF LIBP
Valido dal 20 a 00 ore il 21 a 00 ore UTC


192300Z 2000/2024 23015KT 9999 FEW040
BECMG 2008/2011 09010KT



MetMap, La meteo Aeronautica in un colpo d'occhio ! - Copyright ORBIFLY Dicembre 2007 - Disclaimer

ORBIFLY MET'MAP TEAM :

Programmazione e sviluppo : Alexandra Zaïnal
Concezione : Baudouin d'Aumeries
Aiuto per la programmazione : Marc-Olivier Méhu
Supporto tecnico e logistico : Manuel Goepfert
Aiuto per la traduzione : Arnaldo La Scala

Contatto : metmap@orbifly.com




FONTI E CREDITI :

   NOAA